sensor_id;sensor_type;location;lat;lon;timestamp;P1;durP1;ratioP1;P2;durP2;ratioP2
10667;SDS011;5382;42.136;24.796;2023-12-20T00:01:30;31.80;;;18.90;;
10667;SDS011;5382;42.136;24.796;2023-12-20T00:03:59;32.90;;;19.55;;
10667;SDS011;5382;42.136;24.796;2023-12-20T00:06:27;32.33;;;19.65;;
10667;SDS011;5382;42.136;24.796;2023-12-20T00:08:59;34.65;;;20.17;;
10667;SDS011;5382;42.136;24.796;2023-12-20T00:11:27;28.17;;;19.42;;
10667;SDS011;5382;42.136;24.796;2023-12-20T00:13:56;25.58;;;17.95;;
10667;SDS011;5382;42.136;24.796;2023-12-20T00:16:24;30.80;;;19.48;;
10667;SDS011;5382;42.136;24.796;2023-12-20T00:18:53;31.90;;;19.60;;
10667;SDS011;5382;42.136;24.796;2023-12-20T00:21:24;34.38;;;19.58;;
10667;SDS011;5382;42.136;24.796;2023-12-20T00:23:53;30.23;;;18.27;;
10667;SDS011;5382;42.136;24.796;2023-12-20T00:26:20;27.38;;;16.52;;
10667;SDS011;5382;42.136;24.796;2023-12-20T00:28:48;31.17;;;18.52;;
10667;SDS011;5382;42.136;24.796;2023-12-20T00:31:15;30.75;;;18.00;;
10667;SDS011;5382;42.136;24.796;2023-12-20T00:33:42;28.63;;;17.15;;
10667;SDS011;5382;42.136;24.796;2023-12-20T00:36:11;31.70;;;18.20;;
10667;SDS011;5382;42.136;24.796;2023-12-20T00:38:41;25.48;;;16.27;;
10667;SDS011;5382;42.136;24.796;2023-12-20T00:41:08;26.05;;;16.25;;
10667;SDS011;5382;42.136;24.796;2023-12-20T00:43:35;25.00;;;15.35;;
10667;SDS011;5382;42.136;24.796;2023-12-20T00:46:03;27.08;;;16.85;;
10667;SDS011;5382;42.136;24.796;2023-12-20T00:48:31;28.73;;;16.73;;
10667;SDS011;5382;42.136;24.796;2023-12-20T00:50:59;28.65;;;17.00;;
10667;SDS011;5382;42.136;24.796;2023-12-20T00:53:27;26.02;;;15.57;;
10667;SDS011;5382;42.136;24.796;2023-12-20T00:55:57;24.33;;;13.32;;
10667;SDS011;5382;42.136;24.796;2023-12-20T00:58:25;21.77;;;13.52;;
10667;SDS011;5382;42.136;24.796;2023-12-20T01:00:54;22.73;;;13.98;;
10667;SDS011;5382;42.136;24.796;2023-12-20T01:03:23;25.45;;;14.80;;
10667;SDS011;5382;42.136;24.796;2023-12-20T01:05:50;32.80;;;18.67;;
10667;SDS011;5382;42.136;24.796;2023-12-20T01:08:18;24.23;;;14.18;;
10667;SDS011;5382;42.136;24.796;2023-12-20T01:10:45;30.08;;;15.40;;
10667;SDS011;5382;42.136;24.796;2023-12-20T01:13:15;22.63;;;15.07;;
10667;SDS011;5382;42.136;24.796;2023-12-20T01:15:43;22.45;;;13.80;;
10667;SDS011;5382;42.136;24.796;2023-12-20T01:18:09;21.00;;;13.20;;
10667;SDS011;5382;42.136;24.796;2023-12-20T01:20:36;20.23;;;12.38;;
10667;SDS011;5382;42.136;24.796;2023-12-20T01:23:10;22.95;;;13.65;;
10667;SDS011;5382;42.136;24.796;2023-12-20T01:25:40;16.70;;;10.98;;
10667;SDS011;5382;42.136;24.796;2023-12-20T01:28:07;17.33;;;11.00;;
10667;SDS011;5382;42.136;24.796;2023-12-20T01:30:37;20.10;;;11.38;;
10667;SDS011;5382;42.136;24.796;2023-12-20T01:33:04;29.27;;;17.65;;
10667;SDS011;5382;42.136;24.796;2023-12-20T01:35:31;24.55;;;17.17;;
10667;SDS011;5382;42.136;24.796;2023-12-20T01:37:59;32.58;;;17.65;;
10667;SDS011;5382;42.136;24.796;2023-12-20T01:40:27;26.15;;;15.85;;
10667;SDS011;5382;42.136;24.796;2023-12-20T01:42:58;29.00;;;14.98;;
10667;SDS011;5382;42.136;24.796;2023-12-20T01:45:26;25.02;;;15.43;;
10667;SDS011;5382;42.136;24.796;2023-12-20T01:47:57;27.70;;;15.20;;
10667;SDS011;5382;42.136;24.796;2023-12-20T01:50:26;24.00;;;15.77;;
10667;SDS011;5382;42.136;24.796;2023-12-20T01:52:57;29.15;;;17.48;;
10667;SDS011;5382;42.136;24.796;2023-12-20T01:55:29;30.35;;;23.00;;
10667;SDS011;5382;42.136;24.796;2023-12-20T01:58:00;29.98;;;22.40;;
10667;SDS011;5382;42.136;24.796;2023-12-20T02:00:28;29.02;;;23.23;;
10667;SDS011;5382;42.136;24.796;2023-12-20T02:03:00;21.60;;;12.35;;
10667;SDS011;5382;42.136;24.796;2023-12-20T02:05:28;19.20;;;13.43;;
10667;SDS011;5382;42.136;24.796;2023-12-20T02:07:57;26.88;;;16.15;;
10667;SDS011;5382;42.136;24.796;2023-12-20T02:10:25;20.67;;;12.40;;
10667;SDS011;5382;42.136;24.796;2023-12-20T02:12:52;25.45;;;20.38;;
10667;SDS011;5382;42.136;24.796;2023-12-20T02:15:20;20.20;;;12.88;;
10667;SDS011;5382;42.136;24.796;2023-12-20T02:17:49;22.58;;;12.65;;
10667;SDS011;5382;42.136;24.796;2023-12-20T02:20:18;25.70;;;15.43;;
10667;SDS011;5382;42.136;24.796;2023-12-20T02:22:48;31.48;;;17.33;;
10667;SDS011;5382;42.136;24.796;2023-12-20T02:25:16;24.15;;;15.45;;
10667;SDS011;5382;42.136;24.796;2023-12-20T02:27:44;15.55;;;9.70;;
10667;SDS011;5382;42.136;24.796;2023-12-20T02:30:12;18.52;;;11.30;;
10667;SDS011;5382;42.136;24.796;2023-12-20T02:32:40;14.05;;;10.48;;
10667;SDS011;5382;42.136;24.796;2023-12-20T02:35:07;13.45;;;9.35;;
10667;SDS011;5382;42.136;24.796;2023-12-20T02:37:35;15.27;;;9.85;;
10667;SDS011;5382;42.136;24.796;2023-12-20T02:40:08;13.90;;;9.13;;
10667;SDS011;5382;42.136;24.796;2023-12-20T02:42:36;11.27;;;7.90;;
10667;SDS011;5382;42.136;24.796;2023-12-20T02:45:04;17.23;;;12.93;;
10667;SDS011;5382;42.136;24.796;2023-12-20T02:47:32;20.38;;;15.25;;
10667;SDS011;5382;42.136;24.796;2023-12-20T02:50:13;15.25;;;9.10;;
10667;SDS011;5382;42.136;24.796;2023-12-20T02:52:44;13.43;;;7.68;;
10667;SDS011;5382;42.136;24.796;2023-12-20T02:55:14;20.70;;;8.73;;
10667;SDS011;5382;42.136;24.796;2023-12-20T02:57:42;17.02;;;9.27;;
10667;SDS011;5382;42.136;24.796;2023-12-20T03:00:12;19.42;;;13.63;;
10667;SDS011;5382;42.136;24.796;2023-12-20T03:02:40;23.73;;;14.63;;
10667;SDS011;5382;42.136;24.796;2023-12-20T03:05:08;26.52;;;20.50;;
10667;SDS011;5382;42.136;24.796;2023-12-20T03:07:36;22.30;;;13.40;;
10667;SDS011;5382;42.136;24.796;2023-12-20T03:10:05;21.35;;;12.93;;
10667;SDS011;5382;42.136;24.796;2023-12-20T03:12:39;26.02;;;20.45;;
10667;SDS011;5382;42.136;24.796;2023-12-20T03:15:07;21.63;;;14.02;;
10667;SDS011;5382;42.136;24.796;2023-12-20T03:17:35;18.58;;;12.98;;
10667;SDS011;5382;42.136;24.796;2023-12-20T03:20:03;27.60;;;20.63;;
10667;SDS011;5382;42.136;24.796;2023-12-20T03:22:30;28.13;;;20.52;;
10667;SDS011;5382;42.136;24.796;2023-12-20T03:24:57;31.00;;;22.75;;
10667;SDS011;5382;42.136;24.796;2023-12-20T03:27:25;20.42;;;12.27;;
10667;SDS011;5382;42.136;24.796;2023-12-20T03:29:55;22.52;;;13.80;;
10667;SDS011;5382;42.136;24.796;2023-12-20T03:32:22;32.50;;;18.73;;
10667;SDS011;5382;42.136;24.796;2023-12-20T03:34:52;26.23;;;21.38;;
10667;SDS011;5382;42.136;24.796;2023-12-20T03:37:19;32.03;;;22.48;;
10667;SDS011;5382;42.136;24.796;2023-12-20T03:39:55;30.30;;;21.05;;
10667;SDS011;5382;42.136;24.796;2023-12-20T03:42:22;22.95;;;13.40;;
10667;SDS011;5382;42.136;24.796;2023-12-20T03:44:50;29.08;;;21.35;;
10667;SDS011;5382;42.136;24.796;2023-12-20T03:47:23;28.00;;;14.10;;
10667;SDS011;5382;42.136;24.796;2023-12-20T03:49:50;22.65;;;13.98;;
10667;SDS011;5382;42.136;24.796;2023-12-20T03:52:18;25.90;;;14.18;;
10667;SDS011;5382;42.136;24.796;2023-12-20T03:54:45;25.58;;;14.00;;
10667;SDS011;5382;42.136;24.796;2023-12-20T03:57:13;19.95;;;13.52;;
10667;SDS011;5382;42.136;24.796;2023-12-20T03:59:40;29.23;;;21.02;;
10667;SDS011;5382;42.136;24.796;2023-12-20T04:02:08;27.15;;;15.18;;
10667;SDS011;5382;42.136;24.796;2023-12-20T04:04:38;24.92;;;14.15;;
10667;SDS011;5382;42.136;24.796;2023-12-20T04:07:05;20.95;;;12.48;;
10667;SDS011;5382;42.136;24.796;2023-12-20T04:09:34;25.25;;;20.38;;
10667;SDS011;5382;42.136;24.796;2023-12-20T04:12:03;26.83;;;13.98;;
10667;SDS011;5382;42.136;24.796;2023-12-20T04:14:31;20.95;;;12.65;;
10667;SDS011;5382;42.136;24.796;2023-12-20T04:17:01;23.50;;;13.95;;
10667;SDS011;5382;42.136;24.796;2023-12-20T04:19:33;18.05;;;12.27;;
10667;SDS011;5382;42.136;24.796;2023-12-20T04:22:03;27.23;;;20.20;;
10667;SDS011;5382;42.136;24.796;2023-12-20T04:24:32;25.52;;;13.15;;
10667;SDS011;5382;42.136;24.796;2023-12-20T04:26:59;24.73;;;19.48;;
10667;SDS011;5382;42.136;24.796;2023-12-20T04:29:26;22.38;;;12.57;;
10667;SDS011;5382;42.136;24.796;2023-12-20T04:31:56;18.48;;;11.82;;
10667;SDS011;5382;42.136;24.796;2023-12-20T04:34:25;25.20;;;18.50;;
10667;SDS011;5382;42.136;24.796;2023-12-20T04:36:54;24.13;;;17.95;;
10667;SDS011;5382;42.136;24.796;2023-12-20T04:39:26;33.15;;;24.88;;
10667;SDS011;5382;42.136;24.796;2023-12-20T04:41:54;17.15;;;12.32;;
10667;SDS011;5382;42.136;24.796;2023-12-20T04:44:22;18.75;;;10.85;;
10667;SDS011;5382;42.136;24.796;2023-12-20T04:46:50;23.63;;;11.27;;
10667;SDS011;5382;42.136;24.796;2023-12-20T04:49:18;18.30;;;10.32;;
10667;SDS011;5382;42.136;24.796;2023-12-20T04:51:49;21.67;;;17.25;;
10667;SDS011;5382;42.136;24.796;2023-12-20T04:54:17;17.65;;;11.00;;
10667;SDS011;5382;42.136;24.796;2023-12-20T04:56:46;22.10;;;17.50;;
10667;SDS011;5382;42.136;24.796;2023-12-20T04:59:15;20.63;;;12.43;;
10667;SDS011;5382;42.136;24.796;2023-12-20T05:01:43;20.40;;;12.95;;
10667;SDS011;5382;42.136;24.796;2023-12-20T05:04:10;19.25;;;12.02;;
10667;SDS011;5382;42.136;24.796;2023-12-20T05:06:38;20.85;;;16.80;;
10667;SDS011;5382;42.136;24.796;2023-12-20T05:09:06;19.38;;;11.38;;
10667;SDS011;5382;42.136;24.796;2023-12-20T05:11:35;18.63;;;11.20;;
10667;SDS011;5382;42.136;24.796;2023-12-20T05:14:05;19.65;;;11.35;;
10667;SDS011;5382;42.136;24.796;2023-12-20T05:16:33;25.45;;;18.67;;
10667;SDS011;5382;42.136;24.796;2023-12-20T05:19:00;27.92;;;18.75;;
10667;SDS011;5382;42.136;24.796;2023-12-20T05:21:31;24.02;;;18.15;;
10667;SDS011;5382;42.136;24.796;2023-12-20T05:24:01;26.63;;;18.70;;
10667;SDS011;5382;42.136;24.796;2023-12-20T05:26:28;19.00;;;11.75;;
10667;SDS011;5382;42.136;24.796;2023-12-20T05:28:57;23.27;;;18.02;;
10667;SDS011;5382;42.136;24.796;2023-12-20T05:31:33;25.25;;;19.35;;
10667;SDS011;5382;42.136;24.796;2023-12-20T05:34:00;22.08;;;13.95;;
10667;SDS011;5382;42.136;24.796;2023-12-20T05:36:28;23.67;;;13.77;;
10667;SDS011;5382;42.136;24.796;2023-12-20T05:38:57;19.23;;;11.98;;
10667;SDS011;5382;42.136;24.796;2023-12-20T05:41:28;23.05;;;13.30;;
10667;SDS011;5382;42.136;24.796;2023-12-20T05:43:55;27.65;;;20.35;;
10667;SDS011;5382;42.136;24.796;2023-12-20T05:46:23;19.60;;;12.90;;
10667;SDS011;5382;42.136;24.796;2023-12-20T05:48:52;17.80;;;12.32;;
10667;SDS011;5382;42.136;24.796;2023-12-20T05:51:19;20.48;;;12.23;;
10667;SDS011;5382;42.136;24.796;2023-12-20T05:53:47;19.73;;;11.63;;
10667;SDS011;5382;42.136;24.796;2023-12-20T05:56:15;21.27;;;12.77;;
10667;SDS011;5382;42.136;24.796;2023-12-20T05:58:42;24.92;;;14.07;;
10667;SDS011;5382;42.136;24.796;2023-12-20T06:01:08;20.92;;;16.10;;
10667;SDS011;5382;42.136;24.796;2023-12-20T06:03:36;21.95;;;17.63;;
10667;SDS011;5382;42.136;24.796;2023-12-20T06:06:08;18.83;;;11.30;;
10667;SDS011;5382;42.136;24.796;2023-12-20T06:08:40;17.05;;;11.18;;
10667;SDS011;5382;42.136;24.796;2023-12-20T06:11:09;22.88;;;16.08;;
10667;SDS011;5382;42.136;24.796;2023-12-20T06:13:46;17.13;;;11.32;;
10667;SDS011;5382;42.136;24.796;2023-12-20T06:16:17;16.63;;;10.98;;
10667;SDS011;5382;42.136;24.796;2023-12-20T06:18:45;15.32;;;10.70;;
10667;SDS011;5382;42.136;24.796;2023-12-20T06:21:14;18.33;;;11.73;;
10667;SDS011;5382;42.136;24.796;2023-12-20T06:23:46;20.92;;;11.80;;
10667;SDS011;5382;42.136;24.796;2023-12-20T06:26:16;21.55;;;12.38;;
10667;SDS011;5382;42.136;24.796;2023-12-20T06:28:44;19.85;;;11.23;;
10667;SDS011;5382;42.136;24.796;2023-12-20T06:31:12;20.15;;;11.75;;
10667;SDS011;5382;42.136;24.796;2023-12-20T06:33:40;22.00;;;12.27;;
10667;SDS011;5382;42.136;24.796;2023-12-20T06:36:10;26.15;;;19.08;;
10667;SDS011;5382;42.136;24.796;2023-12-20T06:38:41;28.58;;;18.58;;
10667;SDS011;5382;42.136;24.796;2023-12-20T06:41:08;27.77;;;18.73;;
10667;SDS011;5382;42.136;24.796;2023-12-20T06:43:39;26.13;;;15.15;;
10667;SDS011;5382;42.136;24.796;2023-12-20T06:46:06;25.20;;;14.07;;
10667;SDS011;5382;42.136;24.796;2023-12-20T06:48:34;31.60;;;23.67;;
10667;SDS011;5382;42.136;24.796;2023-12-20T06:51:01;21.58;;;13.98;;
10667;SDS011;5382;42.136;24.796;2023-12-20T06:53:28;18.60;;;13.57;;
10667;SDS011;5382;42.136;24.796;2023-12-20T06:55:57;26.00;;;14.57;;
10667;SDS011;5382;42.136;24.796;2023-12-20T06:58:24;22.95;;;15.25;;
10667;SDS011;5382;42.136;24.796;2023-12-20T07:00:51;26.55;;;15.55;;
10667;SDS011;5382;42.136;24.796;2023-12-20T07:03:18;25.52;;;15.63;;
10667;SDS011;5382;42.136;24.796;2023-12-20T07:05:45;24.83;;;14.93;;
10667;SDS011;5382;42.136;24.796;2023-12-20T07:08:12;25.42;;;14.48;;
10667;SDS011;5382;42.136;24.796;2023-12-20T07:10:40;23.98;;;12.18;;
10667;SDS011;5382;42.136;24.796;2023-12-20T07:16:08;29.77;;;14.90;;
10667;SDS011;5382;42.136;24.796;2023-12-20T07:19:10;27.45;;;15.60;;
10667;SDS011;5382;42.136;24.796;2023-12-20T07:21:38;23.42;;;13.60;;
10667;SDS011;5382;42.136;24.796;2023-12-20T07:24:05;25.95;;;14.40;;
10667;SDS011;5382;42.136;24.796;2023-12-20T07:26:41;19.75;;;13.32;;
10667;SDS011;5382;42.136;24.796;2023-12-20T07:47:13;19.65;;;14.45;;
10667;SDS011;5382;42.136;24.796;2023-12-20T07:49:47;29.95;;;14.95;;
10667;SDS011;5382;42.136;24.796;2023-12-20T07:52:46;28.60;;;15.43;;
10667;SDS011;5382;42.136;24.796;2023-12-20T07:55:38;25.40;;;15.63;;
10667;SDS011;5382;42.136;24.796;2023-12-20T09:24:31;34.10;;;24.15;;
10667;SDS011;5382;42.136;24.796;2023-12-20T09:27:02;41.15;;;25.92;;
10667;SDS011;5382;42.136;24.796;2023-12-20T09:29:53;40.78;;;25.55;;
10667;SDS011;5382;42.136;24.796;2023-12-20T09:32:35;36.83;;;24.20;;
10667;SDS011;5382;42.136;24.796;2023-12-20T09:35:16;38.00;;;23.13;;
10667;SDS011;5382;42.136;24.796;2023-12-20T09:37:47;32.55;;;22.85;;
10667;SDS011;5382;42.136;24.796;2023-12-20T09:46:55;27.98;;;18.35;;
10667;SDS011;5382;42.136;24.796;2023-12-20T09:49:37;23.30;;;16.30;;
10667;SDS011;5382;42.136;24.796;2023-12-20T09:52:10;23.30;;;17.80;;
10667;SDS011;5382;42.136;24.796;2023-12-20T09:54:40;27.85;;;17.55;;
10667;SDS011;5382;42.136;24.796;2023-12-20T09:57:10;26.58;;;18.10;;
10667;SDS011;5382;42.136;24.796;2023-12-20T09:59:44;30.50;;;19.83;;
10667;SDS011;5382;42.136;24.796;2023-12-20T10:02:31;22.25;;;15.20;;
10667;SDS011;5382;42.136;24.796;2023-12-20T10:05:02;25.05;;;17.63;;
10667;SDS011;5382;42.136;24.796;2023-12-20T10:07:35;26.13;;;15.32;;
10667;SDS011;5382;42.136;24.796;2023-12-20T10:10:04;21.98;;;14.10;;
10667;SDS011;5382;42.136;24.796;2023-12-20T10:12:34;18.60;;;13.45;;
10667;SDS011;5382;42.136;24.796;2023-12-20T10:15:10;18.77;;;12.57;;
10667;SDS011;5382;42.136;24.796;2023-12-20T10:23:28;14.27;;;8.35;;
10667;SDS011;5382;42.136;24.796;2023-12-20T10:25:58;15.73;;;8.32;;
10667;SDS011;5382;42.136;24.796;2023-12-20T10:28:33;16.27;;;9.13;;
10667;SDS011;5382;42.136;24.796;2023-12-20T10:31:25;14.52;;;8.40;;
10667;SDS011;5382;42.136;24.796;2023-12-20T10:34:11;12.50;;;7.22;;
10667;SDS011;5382;42.136;24.796;2023-12-20T10:39:56;9.63;;;7.72;;
10667;SDS011;5382;42.136;24.796;2023-12-20T10:42:40;10.75;;;7.75;;
10667;SDS011;5382;42.136;24.796;2023-12-20T10:45:08;10.23;;;6.38;;
10667;SDS011;5382;42.136;24.796;2023-12-20T10:47:36;11.10;;;6.22;;
10667;SDS011;5382;42.136;24.796;2023-12-20T10:50:20;12.85;;;8.50;;
10667;SDS011;5382;42.136;24.796;2023-12-20T10:53:03;11.52;;;7.32;;
10667;SDS011;5382;42.136;24.796;2023-12-20T10:55:33;12.75;;;8.15;;
10667;SDS011;5382;42.136;24.796;2023-12-20T10:58:04;14.07;;;7.97;;
10667;SDS011;5382;42.136;24.796;2023-12-20T11:00:48;9.35;;;7.75;;
10667;SDS011;5382;42.136;24.796;2023-12-20T11:03:21;12.65;;;8.20;;
10667;SDS011;5382;42.136;24.796;2023-12-20T11:05:58;14.13;;;8.88;;
10667;SDS011;5382;42.136;24.796;2023-12-20T11:11:37;14.48;;;8.60;;
10667;SDS011;5382;42.136;24.796;2023-12-20T11:14:14;16.98;;;8.75;;
10667;SDS011;5382;42.136;24.796;2023-12-20T11:16:47;15.82;;;9.13;;
10667;SDS011;5382;42.136;24.796;2023-12-20T11:19:28;14.10;;;8.93;;
10667;SDS011;5382;42.136;24.796;2023-12-20T11:21:55;13.27;;;9.10;;
10667;SDS011;5382;42.136;24.796;2023-12-20T11:24:25;18.98;;;11.35;;
10667;SDS011;5382;42.136;24.796;2023-12-20T11:26:51;18.35;;;12.00;;
10667;SDS011;5382;42.136;24.796;2023-12-20T11:29:32;19.55;;;13.65;;
10667;SDS011;5382;42.136;24.796;2023-12-20T11:32:03;15.48;;;11.20;;
10667;SDS011;5382;42.136;24.796;2023-12-20T11:34:52;27.33;;;14.35;;
10667;SDS011;5382;42.136;24.796;2023-12-20T11:37:28;16.33;;;13.15;;
10667;SDS011;5382;42.136;24.796;2023-12-20T11:40:03;18.60;;;12.68;;
10667;SDS011;5382;42.136;24.796;2023-12-20T11:42:37;15.05;;;13.30;;
10667;SDS011;5382;42.136;24.796;2023-12-20T11:45:05;17.80;;;12.57;;
10667;SDS011;5382;42.136;24.796;2023-12-20T11:47:34;16.60;;;11.50;;
10667;SDS011;5382;42.136;24.796;2023-12-20T11:50:15;14.38;;;10.75;;
10667;SDS011;5382;42.136;24.796;2023-12-20T11:52:42;18.58;;;13.30;;
10667;SDS011;5382;42.136;24.796;2023-12-20T11:55:12;14.98;;;11.13;;
10667;SDS011;5382;42.136;24.796;2023-12-20T11:57:39;17.15;;;11.98;;
10667;SDS011;5382;42.136;24.796;2023-12-20T12:00:06;21.88;;;10.73;;
10667;SDS011;5382;42.136;24.796;2023-12-20T12:02:34;13.25;;;11.85;;
10667;SDS011;5382;42.136;24.796;2023-12-20T12:05:03;14.95;;;10.93;;
10667;SDS011;5382;42.136;24.796;2023-12-20T12:07:31;12.38;;;10.25;;
10667;SDS011;5382;42.136;24.796;2023-12-20T12:09:58;15.00;;;11.13;;
10667;SDS011;5382;42.136;24.796;2023-12-20T12:12:27;16.63;;;12.10;;
10667;SDS011;5382;42.136;24.796;2023-12-20T12:14:57;14.45;;;12.27;;
10667;SDS011;5382;42.136;24.796;2023-12-20T12:17:25;14.98;;;12.45;;
10667;SDS011;5382;42.136;24.796;2023-12-20T12:19:52;16.05;;;12.57;;
10667;SDS011;5382;42.136;24.796;2023-12-20T12:22:30;13.80;;;12.20;;
10667;SDS011;5382;42.136;24.796;2023-12-20T12:24:58;18.50;;;13.50;;
10667;SDS011;5382;42.136;24.796;2023-12-20T12:27:29;18.45;;;12.38;;
10667;SDS011;5382;42.136;24.796;2023-12-20T12:30:00;18.33;;;13.98;;
10667;SDS011;5382;42.136;24.796;2023-12-20T12:32:28;16.65;;;14.25;;
10667;SDS011;5382;42.136;24.796;2023-12-20T12:34:55;18.00;;;14.30;;
10667;SDS011;5382;42.136;24.796;2023-12-20T12:37:22;20.00;;;14.27;;
10667;SDS011;5382;42.136;24.796;2023-12-20T12:39:50;16.40;;;14.30;;
10667;SDS011;5382;42.136;24.796;2023-12-20T12:42:19;19.13;;;11.88;;
10667;SDS011;5382;42.136;24.796;2023-12-20T12:44:48;17.02;;;13.45;;
10667;SDS011;5382;42.136;24.796;2023-12-20T12:47:15;18.55;;;14.43;;
10667;SDS011;5382;42.136;24.796;2023-12-20T12:49:42;18.63;;;14.48;;
10667;SDS011;5382;42.136;24.796;2023-12-20T12:52:10;18.27;;;14.50;;
10667;SDS011;5382;42.136;24.796;2023-12-20T12:54:37;18.63;;;13.70;;
10667;SDS011;5382;42.136;24.796;2023-12-20T12:57:04;20.98;;;13.60;;
10667;SDS011;5382;42.136;24.796;2023-12-20T12:59:31;17.13;;;13.45;;
10667;SDS011;5382;42.136;24.796;2023-12-20T13:01:59;20.55;;;13.90;;
10667;SDS011;5382;42.136;24.796;2023-12-20T13:04:26;15.82;;;13.45;;
10667;SDS011;5382;42.136;24.796;2023-12-20T13:06:53;19.40;;;11.38;;
10667;SDS011;5382;42.136;24.796;2023-12-20T13:09:23;16.63;;;13.60;;
10667;SDS011;5382;42.136;24.796;2023-12-20T13:11:50;15.50;;;12.18;;
10667;SDS011;5382;42.136;24.796;2023-12-20T13:14:17;17.48;;;13.52;;
10667;SDS011;5382;42.136;24.796;2023-12-20T13:16:44;17.27;;;13.57;;
10667;SDS011;5382;42.136;24.796;2023-12-20T13:19:13;16.45;;;13.23;;
10667;SDS011;5382;42.136;24.796;2023-12-20T13:21:40;16.35;;;13.32;;
10667;SDS011;5382;42.136;24.796;2023-12-20T13:24:07;17.48;;;13.88;;
10667;SDS011;5382;42.136;24.796;2023-12-20T13:26:34;20.88;;;14.23;;
10667;SDS011;5382;42.136;24.796;2023-12-20T13:29:01;17.55;;;13.70;;
10667;SDS011;5382;42.136;24.796;2023-12-20T13:31:28;16.50;;;13.23;;
10667;SDS011;5382;42.136;24.796;2023-12-20T13:33:56;17.80;;;13.98;;
10667;SDS011;5382;42.136;24.796;2023-12-20T13:36:24;19.50;;;13.88;;
10667;SDS011;5382;42.136;24.796;2023-12-20T13:38:51;15.77;;;13.05;;
10667;SDS011;5382;42.136;24.796;2023-12-20T13:41:19;20.85;;;11.82;;
10667;SDS011;5382;42.136;24.796;2023-12-20T13:43:46;17.23;;;14.55;;
10667;SDS011;5382;42.136;24.796;2023-12-20T13:46:13;17.27;;;13.30;;
10667;SDS011;5382;42.136;24.796;2023-12-20T13:48:40;20.10;;;14.18;;
10667;SDS011;5382;42.136;24.796;2023-12-20T13:51:07;13.68;;;11.05;;
10667;SDS011;5382;42.136;24.796;2023-12-20T13:53:35;16.90;;;12.75;;
10667;SDS011;5382;42.136;24.796;2023-12-20T13:56:05;17.20;;;11.30;;
10667;SDS011;5382;42.136;24.796;2023-12-20T13:58:32;16.52;;;10.07;;
10667;SDS011;5382;42.136;24.796;2023-12-20T14:00:59;17.50;;;12.02;;
10667;SDS011;5382;42.136;24.796;2023-12-20T14:03:26;17.70;;;12.57;;
10667;SDS011;5382;42.136;24.796;2023-12-20T14:05:53;15.02;;;10.02;;
10667;SDS011;5382;42.136;24.796;2023-12-20T14:08:21;20.73;;;12.52;;
10667;SDS011;5382;42.136;24.796;2023-12-20T14:10:50;20.40;;;13.00;;
10667;SDS011;5382;42.136;24.796;2023-12-20T14:13:17;19.98;;;12.93;;
10667;SDS011;5382;42.136;24.796;2023-12-20T14:15:44;24.08;;;11.40;;
10667;SDS011;5382;42.136;24.796;2023-12-20T14:18:12;20.20;;;10.18;;
10667;SDS011;5382;42.136;24.796;2023-12-20T14:20:40;17.05;;;11.23;;
10667;SDS011;5382;42.136;24.796;2023-12-20T14:23:07;17.45;;;10.80;;
10667;SDS011;5382;42.136;24.796;2023-12-20T14:25:35;12.80;;;9.40;;
10667;SDS011;5382;42.136;24.796;2023-12-20T14:28:04;15.93;;;9.98;;
10667;SDS011;5382;42.136;24.796;2023-12-20T14:30:32;19.20;;;11.20;;
10667;SDS011;5382;42.136;24.796;2023-12-20T14:33:00;18.77;;;10.32;;
10667;SDS011;5382;42.136;24.796;2023-12-20T14:35:27;18.95;;;10.70;;
10667;SDS011;5382;42.136;24.796;2023-12-20T14:37:54;15.77;;;10.73;;
10667;SDS011;5382;42.136;24.796;2023-12-20T14:40:21;19.17;;;11.88;;
10667;SDS011;5382;42.136;24.796;2023-12-20T14:42:48;16.35;;;10.55;;
10667;SDS011;5382;42.136;24.796;2023-12-20T14:45:17;20.58;;;11.90;;
10667;SDS011;5382;42.136;24.796;2023-12-20T14:47:44;22.42;;;12.27;;
10667;SDS011;5382;42.136;24.796;2023-12-20T14:50:13;20.92;;;11.27;;
10667;SDS011;5382;42.136;24.796;2023-12-20T14:52:43;22.05;;;13.05;;
10667;SDS011;5382;42.136;24.796;2023-12-20T14:55:11;20.15;;;11.98;;
10667;SDS011;5382;42.136;24.796;2023-12-20T14:57:38;21.08;;;11.93;;
10667;SDS011;5382;42.136;24.796;2023-12-20T15:00:06;22.13;;;12.23;;
10667;SDS011;5382;42.136;24.796;2023-12-20T15:02:34;23.88;;;13.07;;
10667;SDS011;5382;42.136;24.796;2023-12-20T15:05:01;20.98;;;12.48;;
10667;SDS011;5382;42.136;24.796;2023-12-20T15:07:29;28.48;;;16.48;;
10667;SDS011;5382;42.136;24.796;2023-12-20T15:09:55;23.33;;;14.90;;
10667;SDS011;5382;42.136;24.796;2023-12-20T15:12:22;19.95;;;15.10;;
10667;SDS011;5382;42.136;24.796;2023-12-20T15:14:49;17.90;;;12.65;;
10667;SDS011;5382;42.136;24.796;2023-12-20T15:17:16;22.30;;;12.63;;
10667;SDS011;5382;42.136;24.796;2023-12-20T15:19:45;19.90;;;13.10;;
10667;SDS011;5382;42.136;24.796;2023-12-20T15:22:12;22.70;;;14.05;;
10667;SDS011;5382;42.136;24.796;2023-12-20T15:24:39;19.48;;;13.30;;
10667;SDS011;5382;42.136;24.796;2023-12-20T15:27:07;22.77;;;13.35;;
10667;SDS011;5382;42.136;24.796;2023-12-20T15:29:35;26.42;;;13.55;;
10667;SDS011;5382;42.136;24.796;2023-12-20T15:32:02;25.23;;;13.82;;
10667;SDS011;5382;42.136;24.796;2023-12-20T15:34:30;23.70;;;14.40;;
10667;SDS011;5382;42.136;24.796;2023-12-20T15:36:58;24.98;;;16.77;;
10667;SDS011;5382;42.136;24.796;2023-12-20T15:39:25;28.17;;;16.50;;
10667;SDS011;5382;42.136;24.796;2023-12-20T15:41:52;25.17;;;16.10;;
10667;SDS011;5382;42.136;24.796;2023-12-20T15:44:19;24.00;;;15.93;;
10667;SDS011;5382;42.136;24.796;2023-12-20T15:46:46;25.80;;;16.33;;
10667;SDS011;5382;42.136;24.796;2023-12-20T15:49:13;25.58;;;16.73;;
10667;SDS011;5382;42.136;24.796;2023-12-20T15:51:43;25.08;;;16.45;;
10667;SDS011;5382;42.136;24.796;2023-12-20T15:54:11;26.65;;;15.93;;
10667;SDS011;5382;42.136;24.796;2023-12-20T15:56:38;23.33;;;16.73;;
10667;SDS011;5382;42.136;24.796;2023-12-20T15:59:06;24.33;;;15.43;;
10667;SDS011;5382;42.136;24.796;2023-12-20T16:01:35;26.05;;;14.98;;
10667;SDS011;5382;42.136;24.796;2023-12-20T16:04:02;27.05;;;17.45;;
10667;SDS011;5382;42.136;24.796;2023-12-20T16:06:29;24.63;;;16.63;;
10667;SDS011;5382;42.136;24.796;2023-12-20T16:08:56;26.52;;;18.63;;
10667;SDS011;5382;42.136;24.796;2023-12-20T16:11:24;22.65;;;16.13;;
10667;SDS011;5382;42.136;24.796;2023-12-20T16:13:52;27.42;;;17.45;;
10667;SDS011;5382;42.136;24.796;2023-12-20T16:16:19;26.52;;;17.38;;
10667;SDS011;5382;42.136;24.796;2023-12-20T16:18:46;25.77;;;15.93;;
10667;SDS011;5382;42.136;24.796;2023-12-20T16:21:13;25.48;;;16.65;;
10667;SDS011;5382;42.136;24.796;2023-12-20T16:23:40;28.40;;;18.10;;
10667;SDS011;5382;42.136;24.796;2023-12-20T16:26:07;25.58;;;16.52;;
10667;SDS011;5382;42.136;24.796;2023-12-20T16:28:35;29.70;;;19.02;;
10667;SDS011;5382;42.136;24.796;2023-12-20T16:31:02;36.30;;;20.90;;
10667;SDS011;5382;42.136;24.796;2023-12-20T16:33:30;31.90;;;19.65;;
10667;SDS011;5382;42.136;24.796;2023-12-20T16:35:56;35.25;;;19.50;;
10667;SDS011;5382;42.136;24.796;2023-12-20T16:38:23;33.78;;;19.67;;
10667;SDS011;5382;42.136;24.796;2023-12-20T16:40:50;37.10;;;20.60;;
10667;SDS011;5382;42.136;24.796;2023-12-20T16:43:17;30.40;;;18.98;;